OIIS  Semnan  Airport

Semnan, Iran

Add Bookmark
ICAO OIIS
Type Airport
Status Operational
Latitude
35° 35' 27" N
35.591099
Longitude
53° 29' 42" E
53.495098
Local (GMT +4.5 ) UTC
May 27, 2016 08:39 pm May 27, 2016 16:09
Sunrise-Sunset Local UTC
Begin Civil Twilight 05:12 am 00:42
Sunrise 05:41 am 01:11
Sunset 08:04 pm 15:34
End Civil Twilight 08:33 pm 16:03
VFR
VFR
MVFR
MVFR
IFR
IFR
LIFR
LIFR
Unknown
Unavailable

Current Weather

METAR Observed VFR
OIIS 271400Z 21008KT 9999 FEW035 33/M04 Q1012 Fri, May 27, 2016 @ 14:00 UTC
(2 Hours, 9 Minutes ago)
Visual Flight Rules
Wind Visibility Clouds Conditions
210° at 8 knots (15 kph) 10 km or more
  • Few at 3,500 ft AGL
  • No significant weather
Temperatures Readings Precipitation
Current Temp
33°C
91°F
Dewpoint
-4°C
25°F
Humidity 9%
Altimeter 29.88" Hg
Sea Level Pressure 1,012 mb
Field Elevation
1,115 m
3,658 ft
None Recorded
-
-

CheckWX.com is intended as a tool to help pilots better visualize weather data. It is not intended as a substitute for an official weather briefing obtained from a Flight Service Station. CheckWX.com does not meet the FAA requirements for an official pre-flight weather briefing. Therefore, it's important that pilots still call and obtain an official FSS pre-flight weather briefing.

© 2007-2016 CheckWX.com
16:09:47 UTC